createdAt,value
2023-01-19T00:01:11.566Z,3.83
2023-01-19T00:03:38.162Z,3.92
2023-01-19T00:06:04.834Z,3.47
2023-01-19T00:08:31.773Z,3.72
2023-01-19T00:10:58.380Z,3.45
2023-01-19T00:13:24.990Z,3.80
2023-01-19T00:15:51.657Z,3.45
2023-01-19T00:18:18.298Z,4.07
2023-01-19T00:20:44.856Z,3.90
2023-01-19T00:23:11.453Z,4.63
2023-01-19T00:25:42.586Z,4.93
2023-01-19T00:28:09.367Z,3.97
2023-01-19T00:30:36.032Z,4.80
2023-01-19T00:33:03.197Z,3.92
2023-01-19T00:35:29.941Z,4.35
2023-01-19T00:37:56.611Z,3.85
2023-01-19T00:40:23.378Z,3.95
2023-01-19T00:42:50.005Z,4.30
2023-01-19T00:45:16.778Z,4.03
2023-01-19T00:47:43.423Z,3.75
2023-01-19T00:50:11.639Z,4.30
2023-01-19T00:52:38.716Z,3.70
2023-01-19T00:55:05.304Z,3.92
2023-01-19T00:57:31.932Z,3.75
2023-01-19T00:59:58.826Z,3.95
2023-01-19T01:02:25.614Z,4.50
2023-01-19T01:04:55.005Z,3.72
2023-01-19T01:07:21.712Z,3.60
2023-01-19T01:09:48.365Z,4.25
2023-01-19T01:12:15.200Z,4.05
2023-01-19T01:14:41.839Z,3.67
2023-01-19T01:17:11.380Z,4.30
2023-01-19T01:19:38.305Z,4.25
2023-01-19T01:22:05.208Z,3.00
2023-01-19T01:24:32.046Z,4.15
2023-01-19T01:26:58.685Z,4.95
2023-01-19T01:29:25.305Z,4.03
2023-01-19T01:31:52.124Z,3.40
2023-01-19T01:34:18.804Z,2.90
2023-01-19T01:36:45.404Z,5.47
2023-01-19T01:39:11.975Z,3.15
2023-01-19T01:41:38.609Z,3.85
2023-01-19T01:44:08.272Z,3.50
2023-01-19T01:46:35.162Z,3.00
2023-01-19T01:49:01.821Z,4.03
2023-01-19T01:51:28.761Z,3.53
2023-01-19T01:53:55.388Z,3.50
2023-01-19T01:56:22.105Z,4.32
2023-01-19T01:58:48.804Z,3.35
2023-01-19T02:01:34.493Z,4.25
2023-01-19T02:04:01.188Z,3.65
2023-01-19T02:06:27.804Z,3.95
2023-01-19T02:09:13.061Z,3.10
2023-01-19T02:11:58.592Z,3.78
2023-01-19T02:14:25.286Z,3.20
2023-01-19T02:16:51.911Z,3.00
2023-01-19T02:19:18.500Z,3.35
2023-01-19T02:21:45.085Z,2.90
2023-01-19T02:24:11.752Z,2.90
2023-01-19T02:26:38.560Z,3.88
2023-01-19T02:29:05.173Z,3.25
2023-01-19T02:31:31.753Z,3.47
2023-01-19T02:33:58.379Z,2.47
2023-01-19T02:36:25.940Z,3.10
2023-01-19T02:38:52.624Z,3.72
2023-01-19T02:41:19.253Z,3.30
2023-01-19T02:43:45.851Z,3.28
2023-01-19T02:46:12.482Z,3.28
2023-01-19T02:48:39.340Z,3.20
2023-01-19T02:51:05.908Z,3.40
2023-01-19T02:53:32.616Z,3.17
2023-01-19T02:55:59.211Z,3.83
2023-01-19T02:58:25.831Z,3.72
2023-01-19T03:00:52.537Z,3.45
2023-01-19T03:03:19.535Z,3.28
2023-01-19T03:05:46.113Z,2.90
2023-01-19T03:08:12.745Z,2.90
2023-01-19T03:10:42.361Z,3.65
2023-01-19T03:13:08.965Z,3.60
2023-01-19T03:15:35.608Z,3.03
2023-01-19T03:18:02.287Z,3.50
2023-01-19T03:20:29.069Z,3.25
2023-01-19T03:22:55.817Z,4.13
2023-01-19T03:25:22.415Z,3.67
2023-01-19T03:27:49.029Z,3.72
2023-01-19T03:30:15.618Z,3.33
2023-01-19T03:32:42.261Z,3.58
2023-01-19T03:35:08.834Z,3.17
2023-01-19T03:37:35.428Z,3.03
2023-01-19T03:40:02.208Z,3.20
2023-01-19T03:42:28.988Z,2.97
2023-01-19T03:44:56.503Z,3.10
2023-01-19T03:47:23.089Z,3.53
2023-01-19T03:49:50.271Z,3.58
2023-01-19T03:52:16.902Z,3.45
2023-01-19T03:54:43.509Z,3.30
2023-01-19T03:57:10.124Z,3.25
2023-01-19T03:59:36.706Z,2.92
2023-01-19T04:02:03.336Z,4.07
2023-01-19T04:04:29.946Z,2.72
2023-01-19T04:06:57.794Z,3.72
2023-01-19T04:09:25.667Z,3.95
2023-01-19T04:11:52.717Z,2.78
2023-01-19T04:14:19.312Z,3.28
2023-01-19T04:16:45.935Z,3.50
2023-01-19T04:19:12.657Z,3.38
2023-01-19T04:21:39.706Z,3.38
2023-01-19T04:24:06.306Z,3.47
2023-01-19T04:26:32.949Z,3.20
2023-01-19T04:28:59.591Z,2.80
2023-01-19T04:31:26.198Z,3.65
2023-01-19T04:33:52.879Z,4.55
2023-01-19T04:36:19.483Z,3.38
2023-01-19T04:38:46.666Z,3.03
2023-01-19T04:41:13.366Z,2.80
2023-01-19T04:43:39.995Z,4.18
2023-01-19T04:46:07.146Z,3.65
2023-01-19T04:48:33.772Z,2.97
2023-01-19T04:51:00.474Z,3.00
2023-01-19T04:53:27.070Z,3.03
2023-01-19T04:55:54.064Z,3.72
2023-01-19T04:58:20.706Z,4.03
2023-01-19T05:00:47.573Z,3.72
2023-01-19T05:03:14.254Z,4.18
2023-01-19T05:05:40.922Z,3.50
2023-01-19T05:08:07.478Z,3.88
2023-01-19T05:10:34.071Z,3.15
2023-01-19T05:13:00.934Z,3.70
2023-01-19T05:15:27.858Z,4.10
2023-01-19T05:17:55.214Z,2.80
2023-01-19T05:20:21.807Z,3.05
2023-01-19T05:22:48.398Z,3.22
2023-01-19T05:25:14.995Z,4.18
2023-01-19T05:27:41.559Z,2.58
2023-01-19T05:30:08.152Z,3.67
2023-01-19T05:32:34.756Z,3.38
2023-01-19T05:35:01.899Z,3.15
2023-01-19T05:37:28.504Z,3.65
2023-01-19T05:39:55.172Z,3.60
2023-01-19T05:42:21.805Z,3.75
2023-01-19T05:44:48.561Z,3.72
2023-01-19T05:47:15.131Z,3.15
2023-01-19T05:49:41.723Z,3.40
2023-01-19T05:52:08.464Z,3.53
2023-01-19T05:54:35.157Z,3.10
2023-01-19T05:57:03.028Z,3.25
2023-01-19T05:59:29.689Z,2.95
2023-01-19T06:01:57.155Z,3.33
2023-01-19T06:04:23.841Z,4.50
2023-01-19T06:06:50.453Z,3.25
2023-01-19T06:09:20.155Z,3.22
2023-01-19T06:11:46.872Z,3.50
2023-01-19T06:14:13.474Z,3.63
2023-01-19T06:16:40.205Z,4.00
2023-01-19T06:19:06.851Z,4.05
2023-01-19T06:21:33.470Z,5.40
2023-01-19T06:24:00.064Z,3.80
2023-01-19T06:26:26.665Z,3.45
2023-01-19T06:28:53.294Z,3.88
2023-01-19T06:31:19.964Z,4.28
2023-01-19T06:33:46.592Z,4.57
2023-01-19T06:36:13.182Z,3.72
2023-01-19T06:38:39.978Z,4.13
2023-01-19T06:41:06.553Z,5.95
2023-01-19T06:43:33.254Z,4.15
2023-01-19T06:46:03.977Z,4.00
2023-01-19T06:48:30.806Z,3.95
2023-01-19T06:50:59.539Z,3.40
2023-01-19T06:53:27.966Z,5.93
2023-01-19T06:55:54.760Z,3.53
2023-01-19T06:58:21.487Z,3.85
2023-01-19T07:00:51.680Z,3.53
2023-01-19T07:03:19.168Z,3.70
2023-01-19T07:05:45.834Z,3.85
2023-01-19T07:08:12.895Z,4.10
2023-01-19T07:11:22.983Z,3.50
2023-01-19T07:13:26.205Z,3.63
2023-01-19T07:15:52.829Z,3.03
2023-01-19T07:18:19.563Z,4.45
2023-01-19T07:20:49.106Z,4.68
2023-01-19T07:23:15.881Z,4.03
2023-01-19T07:25:42.438Z,4.57
2023-01-19T07:28:09.187Z,4.55
2023-01-19T07:30:35.881Z,3.97
2023-01-19T07:33:03.358Z,4.65
2023-01-19T07:35:30.166Z,4.57
2023-01-19T07:37:56.813Z,4.60
2023-01-19T07:40:24.049Z,5.57
2023-01-19T07:42:50.980Z,4.80
2023-01-19T07:45:17.677Z,4.47
2023-01-19T07:47:44.452Z,5.88
2023-01-19T07:50:11.086Z,4.30
2023-01-19T07:52:37.724Z,4.55
2023-01-19T07:55:04.305Z,4.15
2023-01-19T07:57:31.172Z,4.50
2023-01-19T07:59:58.026Z,3.45
2023-01-19T08:02:25.541Z,4.20
2023-01-19T08:04:52.314Z,4.05
2023-01-19T08:07:19.176Z,3.88
2023-01-19T08:09:45.785Z,3.78
2023-01-19T08:12:12.417Z,3.70
2023-01-19T08:14:39.026Z,4.75
2023-01-19T08:17:05.631Z,4.15
2023-01-19T08:19:32.254Z,3.47
2023-01-19T08:21:59.896Z,4.90
2023-01-19T08:24:29.069Z,4.65
2023-01-19T08:26:55.708Z,4.28
2023-01-19T08:29:22.279Z,3.67
2023-01-19T08:31:49.027Z,4.65
2023-01-19T08:34:16.766Z,4.00
2023-01-19T08:36:43.367Z,3.90
2023-01-19T08:39:15.566Z,3.40
2023-01-19T08:41:46.206Z,3.42
2023-01-19T08:44:13.973Z,4.30
2023-01-19T08:46:40.631Z,3.92
2023-01-19T08:49:07.291Z,4.38
2023-01-19T08:51:34.091Z,4.20
2023-01-19T08:54:01.955Z,3.67
2023-01-19T08:56:28.591Z,3.92
2023-01-19T08:59:08.128Z,4.50
2023-01-19T09:01:37.143Z,4.63
2023-01-19T09:04:04.064Z,3.75
2023-01-19T09:06:30.712Z,4.25
2023-01-19T09:08:57.767Z,4.03
2023-01-19T09:11:24.457Z,3.55
2023-01-19T09:13:51.214Z,4.50
2023-01-19T09:16:18.090Z,4.18
2023-01-19T09:18:45.943Z,4.32
2023-01-19T09:21:13.785Z,4.38
2023-01-19T09:23:40.720Z,5.05
2023-01-19T09:26:10.216Z,5.05
2023-01-19T09:28:39.651Z,5.57
2023-01-19T09:31:06.684Z,5.13
2023-01-19T09:33:33.987Z,5.38
2023-01-19T09:36:02.026Z,5.15
2023-01-19T09:38:31.565Z,5.88
2023-01-19T09:40:59.093Z,4.53
2023-01-19T09:43:25.994Z,4.97
2023-01-19T09:45:52.571Z,4.93
2023-01-19T09:48:19.201Z,6.15
2023-01-19T09:50:47.493Z,4.57
2023-01-19T09:53:14.314Z,4.38
2023-01-19T09:55:41.207Z,4.75
2023-01-19T09:58:07.831Z,5.55
2023-01-19T10:00:34.570Z,4.32
2023-01-19T10:03:02.794Z,4.47
2023-01-19T10:05:29.680Z,4.88
2023-01-19T10:07:56.379Z,4.28
2023-01-19T10:10:23.017Z,3.67
2023-01-19T10:12:51.778Z,3.88
2023-01-19T10:15:18.579Z,4.65
2023-01-19T10:17:45.180Z,3.67
2023-01-19T10:20:11.806Z,4.63
2023-01-19T10:22:39.738Z,4.20
2023-01-19T10:25:06.354Z,4.53
2023-01-19T10:27:34.209Z,4.30
2023-01-19T10:30:00.842Z,3.72
2023-01-19T10:32:30.413Z,3.53
2023-01-19T10:34:58.450Z,3.70
2023-01-19T10:37:25.241Z,4.38
2023-01-19T10:39:51.876Z,3.75
2023-01-19T10:42:18.525Z,3.80
2023-01-19T10:44:45.733Z,3.50
2023-01-19T10:47:12.338Z,3.28
2023-01-19T10:49:39.066Z,3.88
2023-01-19T10:52:05.740Z,3.63
2023-01-19T10:54:34.407Z,3.55
2023-01-19T10:57:01.038Z,2.92
2023-01-19T10:59:27.697Z,3.28
2023-01-19T11:01:54.468Z,3.05
2023-01-19T11:04:22.440Z,3.03
2023-01-19T11:06:49.057Z,3.40
2023-01-19T11:09:15.669Z,3.33
2023-01-19T11:11:42.292Z,3.88
2023-01-19T11:14:09.131Z,3.83
2023-01-19T11:16:38.041Z,2.92
2023-01-19T11:19:05.156Z,3.40
2023-01-19T11:21:31.820Z,4.40
2023-01-19T11:23:58.632Z,3.60
2023-01-19T11:26:25.321Z,3.30
2023-01-19T11:28:53.145Z,3.92
2023-01-19T11:31:19.896Z,3.15
2023-01-19T11:33:47.080Z,3.63
2023-01-19T11:36:14.622Z,3.03
2023-01-19T11:38:43.174Z,3.25
2023-01-19T11:41:12.434Z,3.83
2023-01-19T11:43:48.701Z,2.75
2023-01-19T11:46:16.310Z,3.00
2023-01-19T11:48:42.936Z,3.25
2023-01-19T11:51:09.539Z,2.60
2023-01-19T11:53:36.437Z,2.72
2023-01-19T11:56:04.690Z,2.45
2023-01-19T11:58:31.449Z,3.72
2023-01-19T12:00:58.117Z,3.45
2023-01-19T12:03:25.063Z,3.53
2023-01-19T12:05:51.772Z,3.35
2023-01-19T12:08:18.372Z,3.83
2023-01-19T12:10:45.047Z,3.03
2023-01-19T12:13:11.792Z,4.00
2023-01-19T12:15:38.368Z,4.20
2023-01-19T12:18:05.289Z,3.97
2023-01-19T12:20:32.119Z,4.68
2023-01-19T12:22:59.742Z,3.88
2023-01-19T12:25:26.609Z,4.05
2023-01-19T12:27:53.177Z,3.90
2023-01-19T12:30:19.813Z,4.10
2023-01-19T12:32:47.638Z,3.17
2023-01-19T12:35:14.248Z,3.53
2023-01-19T12:37:40.882Z,3.40
2023-01-19T12:40:07.561Z,3.60
2023-01-19T12:42:35.301Z,3.55
2023-01-19T12:45:01.991Z,4.18
2023-01-19T12:47:28.593Z,3.60
2023-01-19T12:49:55.321Z,4.65
2023-01-19T12:52:21.941Z,4.68
2023-01-19T12:54:48.589Z,4.30
2023-01-19T12:57:15.287Z,4.85
2023-01-19T12:59:41.890Z,4.95
2023-01-19T13:02:08.615Z,4.47
2023-01-19T13:04:36.537Z,5.40
2023-01-19T13:07:05.777Z,5.35
2023-01-19T13:09:32.468Z,4.55
2023-01-19T13:12:01.056Z,4.43
2023-01-19T13:14:28.025Z,3.60
2023-01-19T13:16:54.605Z,4.55
2023-01-19T13:19:21.237Z,3.92
2023-01-19T13:21:47.918Z,4.30
2023-01-19T13:24:17.781Z,4.20
2023-01-19T13:26:44.475Z,3.25
2023-01-19T13:29:11.091Z,3.63
2023-01-19T13:31:37.740Z,4.20
2023-01-19T13:34:04.483Z,4.00
2023-01-19T13:36:31.107Z,4.07
2023-01-19T13:38:57.746Z,4.28
2023-01-19T13:41:25.051Z,3.17
2023-01-19T13:43:51.872Z,3.45
2023-01-19T13:46:19.340Z,4.45
2023-01-19T13:48:46.031Z,3.13
2023-01-19T13:51:12.604Z,2.85
2023-01-19T13:53:40.456Z,4.25
2023-01-19T13:56:07.112Z,3.80
2023-01-19T13:58:33.732Z,3.40
2023-01-19T14:01:00.423Z,4.90
2023-01-19T14:03:27.357Z,3.47
2023-01-19T14:05:54.176Z,3.38
2023-01-19T14:08:20.793Z,3.90
2023-01-19T14:10:47.446Z,4.00
2023-01-19T14:13:14.234Z,4.60
2023-01-19T14:15:40.932Z,4.32
2023-01-19T14:18:07.610Z,4.00
2023-01-19T14:20:36.794Z,4.63
2023-01-19T14:23:03.405Z,4.55
2023-01-19T14:25:30.092Z,4.53
2023-01-19T14:27:56.669Z,4.18
2023-01-19T14:30:25.131Z,3.83
2023-01-19T14:32:52.396Z,5.10
2023-01-19T14:35:18.969Z,4.22
2023-01-19T14:37:47.350Z,4.70
2023-01-19T14:40:14.893Z,4.15
2023-01-19T14:42:41.518Z,4.47
2023-01-19T14:45:08.349Z,6.20
2023-01-19T14:47:35.091Z,3.83
2023-01-19T14:50:01.710Z,4.68
2023-01-19T14:52:28.299Z,3.30
2023-01-19T14:54:54.926Z,4.90
2023-01-19T14:57:21.751Z,4.97
2023-01-19T14:59:49.650Z,4.15
2023-01-19T15:02:16.447Z,4.07
2023-01-19T15:04:43.050Z,4.57
2023-01-19T15:07:09.631Z,4.40
2023-01-19T15:09:36.209Z,4.32
2023-01-19T15:12:02.871Z,4.15
2023-01-19T15:14:29.700Z,3.47
2023-01-19T15:16:56.299Z,3.95
2023-01-19T15:19:22.940Z,3.85
2023-01-19T15:21:49.580Z,3.90
2023-01-19T15:24:18.035Z,4.93
2023-01-19T15:26:44.812Z,3.95
2023-01-19T15:29:11.378Z,3.38
2023-01-19T15:31:38.052Z,3.45
2023-01-19T15:34:04.766Z,3.70
2023-01-19T15:36:31.434Z,3.75
2023-01-19T15:38:58.021Z,4.45
2023-01-19T15:41:24.590Z,5.18
2023-01-19T15:43:52.256Z,3.33
2023-01-19T15:46:18.948Z,5.20
2023-01-19T15:48:45.536Z,4.25
2023-01-19T15:51:12.237Z,4.05
2023-01-19T15:53:41.252Z,4.13
2023-01-19T15:56:07.874Z,4.80
2023-01-19T15:58:34.454Z,3.75
2023-01-19T16:01:01.166Z,4.30
2023-01-19T16:03:28.314Z,3.92
2023-01-19T16:05:54.892Z,3.70
2023-01-19T16:08:22.011Z,4.03
2023-01-19T16:10:48.672Z,4.53
2023-01-19T16:13:16.398Z,6.10
2023-01-19T16:15:43.059Z,7.57
2023-01-19T16:18:09.757Z,6.60
2023-01-19T16:20:36.376Z,5.82
2023-01-19T16:23:14.583Z,5.78
2023-01-19T16:25:41.699Z,5.30
2023-01-19T16:28:08.376Z,4.18
2023-01-19T16:30:35.063Z,5.47
2023-01-19T16:33:01.691Z,5.18
2023-01-19T16:35:28.348Z,4.45
2023-01-19T16:37:55.003Z,3.50
2023-01-19T16:40:21.721Z,3.50
2023-01-19T16:42:51.261Z,3.95
2023-01-19T16:45:17.903Z,2.92
2023-01-19T16:47:46.845Z,3.33
2023-01-19T16:50:13.625Z,4.83
2023-01-19T16:52:40.504Z,4.57
2023-01-19T16:55:25.309Z,5.15
2023-01-19T16:57:52.516Z,6.97
2023-01-19T17:00:19.118Z,7.13
2023-01-19T17:02:45.967Z,7.10
2023-01-19T17:05:12.868Z,5.50
2023-01-19T17:07:39.579Z,5.53
2023-01-19T17:10:06.213Z,6.38
2023-01-19T17:12:33.057Z,5.38
2023-01-19T17:14:59.697Z,5.07
2023-01-19T17:17:26.306Z,5.82
2023-01-19T17:19:52.881Z,6.47
2023-01-19T17:22:19.775Z,5.00
2023-01-19T17:24:46.371Z,6.00
2023-01-19T17:27:12.985Z,4.95
2023-01-19T17:29:39.601Z,5.43
2023-01-19T17:32:06.578Z,5.63
2023-01-19T17:34:33.721Z,6.95
2023-01-19T17:37:03.089Z,5.57
2023-01-19T17:39:29.957Z,5.80
2023-01-19T17:41:56.586Z,5.22
2023-01-19T17:44:23.501Z,6.88
2023-01-19T17:46:50.137Z,5.90
2023-01-19T17:49:16.722Z,5.28
2023-01-19T17:51:43.316Z,5.55
2023-01-19T17:54:11.320Z,5.72
2023-01-19T17:56:38.643Z,5.15
2023-01-19T17:59:06.502Z,5.10
2023-01-19T18:01:33.603Z,4.93
2023-01-19T18:04:02.504Z,5.35
2023-01-19T18:06:29.132Z,5.68
2023-01-19T18:08:55.690Z,5.00
2023-01-19T18:11:22.561Z,5.10
2023-01-19T18:13:49.624Z,5.28
2023-01-19T18:16:16.304Z,4.53
2023-01-19T18:18:44.044Z,5.97
2023-01-19T18:21:10.730Z,4.80
2023-01-19T18:23:37.392Z,4.55
2023-01-19T18:26:04.005Z,5.38
2023-01-19T18:28:30.580Z,5.38
2023-01-19T18:30:57.403Z,6.38
2023-01-19T18:33:25.384Z,6.40
2023-01-19T18:35:51.966Z,5.55
2023-01-19T18:38:18.551Z,7.38
2023-01-19T18:40:45.216Z,7.20
2023-01-19T18:43:14.085Z,6.80
2023-01-19T18:45:41.999Z,6.80
2023-01-19T18:48:09.303Z,8.13
2023-01-19T18:50:35.938Z,7.18
2023-01-19T18:53:02.575Z,7.00
2023-01-19T18:55:29.346Z,6.20
2023-01-19T18:57:55.908Z,7.60
2023-01-19T19:00:22.577Z,6.60
2023-01-19T19:02:50.543Z,7.30
2023-01-19T19:05:17.185Z,8.13
2023-01-19T19:07:43.803Z,7.47
2023-01-19T19:10:10.829Z,7.75
2023-01-19T19:12:37.633Z,7.88
2023-01-19T19:15:04.261Z,8.20
2023-01-19T19:17:31.213Z,7.05
2023-01-19T19:19:57.838Z,8.68
2023-01-19T19:22:25.745Z,8.73
2023-01-19T19:24:52.385Z,7.70
2023-01-19T19:27:18.998Z,6.78
2023-01-19T19:29:45.602Z,7.13
2023-01-19T19:32:12.328Z,8.43
2023-01-19T19:34:39.093Z,9.60
2023-01-19T19:37:05.899Z,8.50
2023-01-19T19:39:32.761Z,9.77
2023-01-19T19:41:59.400Z,9.32
2023-01-19T19:44:26.327Z,7.75
2023-01-19T19:46:52.911Z,7.82
2023-01-19T19:49:21.643Z,10.27
2023-01-19T19:51:48.884Z,7.70
2023-01-19T19:54:15.480Z,10.40
2023-01-19T19:56:42.141Z,10.32
2023-01-19T19:59:08.738Z,9.68
2023-01-19T20:01:35.505Z,9.88
2023-01-19T20:04:03.088Z,9.57
2023-01-19T20:06:29.761Z,10.10
2023-01-19T20:08:56.384Z,8.60
2023-01-19T20:11:22.982Z,9.02
2023-01-19T20:13:50.677Z,7.25
2023-01-19T20:16:17.302Z,8.88
2023-01-19T20:18:43.922Z,7.85
2023-01-19T20:21:10.567Z,8.32
2023-01-19T20:23:37.172Z,7.95
2023-01-19T20:26:03.815Z,8.13
2023-01-19T20:28:30.408Z,9.48
2023-01-19T20:30:57.020Z,9.07
2023-01-19T20:33:23.605Z,9.07
2023-01-19T20:35:51.940Z,8.35
2023-01-19T20:38:18.511Z,8.18
2023-01-19T20:40:45.178Z,10.07
2023-01-19T20:43:11.817Z,8.40
2023-01-19T20:45:38.446Z,8.65
2023-01-19T20:48:05.094Z,8.77
2023-01-19T20:50:31.780Z,10.02
2023-01-19T20:52:58.387Z,12.15
2023-01-19T20:55:24.973Z,10.38
2023-01-19T20:57:51.686Z,8.82
2023-01-19T21:00:18.289Z,10.63
2023-01-19T21:02:44.918Z,10.00
2023-01-19T21:05:11.944Z,10.68
2023-01-19T21:07:38.680Z,9.63
2023-01-19T21:10:05.409Z,9.23
2023-01-19T21:12:32.002Z,9.10
2023-01-19T21:14:58.606Z,9.45
2023-01-19T21:17:25.189Z,8.02
2023-01-19T21:19:51.771Z,9.32
2023-01-19T21:22:18.372Z,9.15
2023-01-19T21:24:44.954Z,8.60
2023-01-19T21:27:11.531Z,8.35
2023-01-19T21:29:38.150Z,8.60
2023-01-19T21:32:04.939Z,8.20
2023-01-19T21:34:31.579Z,7.93
2023-01-19T21:36:58.143Z,7.70
2023-01-19T21:39:24.815Z,7.53
2023-01-19T21:41:51.898Z,8.07
2023-01-19T21:44:18.543Z,8.52
2023-01-19T21:46:45.179Z,7.20
2023-01-19T21:49:11.794Z,6.68
2023-01-19T21:51:38.391Z,8.00
2023-01-19T21:54:05.092Z,8.50
2023-01-19T21:56:31.741Z,7.28
2023-01-19T21:58:58.510Z,8.60
2023-01-19T22:01:25.462Z,9.43
2023-01-19T22:03:52.156Z,8.13
2023-01-19T22:06:18.726Z,8.15
2023-01-19T22:08:46.514Z,6.95
2023-01-19T22:11:13.123Z,7.97
2023-01-19T22:13:39.801Z,6.80
2023-01-19T22:16:08.763Z,6.63
2023-01-19T22:18:36.126Z,7.47
2023-01-19T22:21:02.761Z,6.47
2023-01-19T22:23:29.353Z,7.82
2023-01-19T22:25:55.909Z,7.45
2023-01-19T22:28:22.558Z,8.85
2023-01-19T22:30:49.218Z,7.85
2023-01-19T22:33:16.317Z,7.20
2023-01-19T22:35:43.179Z,6.07
2023-01-19T22:38:09.988Z,6.63
2023-01-19T22:40:36.624Z,7.30
2023-01-19T22:43:03.787Z,7.25
2023-01-19T22:45:30.367Z,7.72
2023-01-19T22:47:57.023Z,6.70
2023-01-19T22:50:23.596Z,7.18
2023-01-19T22:52:50.181Z,8.48
2023-01-19T22:55:16.812Z,6.80
2023-01-19T22:57:43.443Z,6.68
2023-01-19T23:00:10.012Z,6.30
2023-01-19T23:02:36.690Z,6.53
2023-01-19T23:05:03.257Z,7.50
2023-01-19T23:07:29.884Z,5.43
2023-01-19T23:09:56.478Z,5.63
2023-01-19T23:12:23.137Z,6.30
2023-01-19T23:14:49.788Z,7.53
2023-01-19T23:17:16.374Z,6.03
2023-01-19T23:19:42.976Z,5.70
2023-01-19T23:22:09.586Z,6.97
2023-01-19T23:24:36.198Z,6.05
2023-01-19T23:27:02.797Z,6.07
2023-01-19T23:29:29.379Z,5.55
2023-01-19T23:31:56.919Z,5.45
2023-01-19T23:34:23.553Z,5.35
2023-01-19T23:36:50.126Z,5.63
2023-01-19T23:39:16.778Z,5.45
2023-01-19T23:41:43.425Z,5.57
2023-01-19T23:44:10.095Z,5.05
2023-01-19T23:46:36.726Z,4.95
2023-01-19T23:49:03.334Z,5.25
2023-01-19T23:51:29.988Z,4.90
2023-01-19T23:53:56.577Z,5.13
2023-01-19T23:56:23.187Z,6.28
2023-01-19T23:58:49.747Z,5.00
